首页
METAR-TAF:

METAR-TAF

机场 :

匹兹堡国际机场

匹兹堡, 宾夕法尼亚州, 美国

纬度: 40-30-14N, 经度: 080-15-59W, 海拔: 366米

当前天气观测

该预报发布于22分钟前的15:51 UTC
风速6节,风向
温度 3°C
湿度 70%
气压 1025 hPa
能見度: 16.1公里
多云层高于25000英尺

METAR: KPIT 171551Z 10006KT 10SM BKN250 03/M02 A3026 RMK AO2 SLP266 T00331022

时间: 11:13 (16:13 UTC)

预报

该预报发布于1小时和17分钟前的14:56 UTC
预报有效从17日的 15点(UTC)到 18日的 18点(UTC)
风速6节,风向东转东南
能見度: 10公里
多云层高于20000英尺
从 18日的 0700点(UTC)
风速10节,风向东南
能見度: 10公里
阴天层高于5000英尺
小阵雨
从 18日的 1200点(UTC)
风速10节,风向
能見度: 9.7公里
阴天层高于2500英尺
小阵雨
从 18日的 1500点(UTC)
风速11节,风向西南
能見度: 8.0公里
阴天层高于1500英尺
小阵雨

TAF: KPIT 171456Z 1715/1818 12006KT P6SM BKN200 FM180700 14010KT P6SM -SHRA OVC050 WS020/18045KT FM181200 19010KT 6SM -SHRA OVC025 WS020/22045KT FM181500 23011KT 5SM -SHRA OVC015

超过4000个机场的气象观测和天气预报(METAR&TAF报告)。

可查询的气象台以黄色和红色小点在地图上表示。

将鼠标移到小点上方,可查看气象台名称。

然后点击查看天气观测和预报。

如需切换地图:点击带黑十字的绿色按钮放大地图;点击带横线的绿色按钮缩小地图;或者点击绿色箭头查看邻近地区的地图。


METAR-TAF: